createdAt,value
2018-09-13T00:04:17.034Z,8.80
2018-09-13T00:09:22.195Z,7.40
2018-09-13T00:14:27.428Z,6.97
2018-09-13T00:19:32.786Z,6.90
2018-09-13T00:24:38.160Z,7.67
2018-09-13T00:29:43.487Z,8.63
2018-09-13T00:34:48.575Z,8.10
2018-09-13T00:39:53.707Z,7.87
2018-09-13T00:44:58.804Z,8.40
2018-09-13T00:50:04.297Z,8.60
2018-09-13T00:55:09.762Z,7.87
2018-09-13T01:00:14.877Z,7.50
2018-09-13T01:05:20.313Z,6.80
2018-09-13T01:10:25.518Z,6.27
2018-09-13T01:15:31.598Z,6.40
2018-09-13T01:20:38.234Z,6.83
2018-09-13T01:25:43.469Z,7.60
2018-09-13T01:30:48.682Z,10.37
2018-09-13T01:35:54.145Z,13.80
2018-09-13T01:41:00.175Z,13.90
2018-09-13T01:46:05.723Z,13.93
2018-09-13T01:51:10.650Z,13.03
2018-09-13T01:56:17.546Z,12.60
2018-09-13T02:01:23.888Z,12.57
2018-09-13T02:06:29.344Z,8.70
2018-09-13T02:11:34.847Z,8.73
2018-09-13T02:16:40.271Z,6.70
2018-09-13T02:21:45.437Z,6.23
2018-09-13T02:26:50.857Z,5.60
2018-09-13T02:31:56.946Z,5.40
2018-09-13T02:37:03.149Z,6.43
2018-09-13T02:42:08.396Z,7.43
2018-09-13T02:47:14.122Z,8.43
2018-09-13T02:52:20.499Z,8.50
2018-09-13T02:57:25.764Z,8.17
2018-09-13T03:02:31.132Z,8.73
2018-09-13T03:07:36.475Z,10.77
2018-09-13T03:12:42.688Z,10.67
2018-09-13T03:17:49.596Z,10.93
2018-09-13T03:22:55.158Z,9.87
2018-09-13T03:28:01.591Z,8.60
2018-09-13T03:33:06.881Z,8.33
2018-09-13T03:38:12.088Z,10.50
2018-09-13T03:43:17.354Z,9.47
2018-09-13T03:48:22.620Z,11.10
2018-09-13T03:53:27.996Z,10.70
2018-09-13T03:58:33.085Z,9.63
2018-09-13T04:03:41.944Z,9.47
2018-09-13T04:08:47.072Z,9.53
2018-09-13T04:13:52.403Z,8.97
2018-09-13T04:18:57.730Z,9.20
2018-09-13T04:24:03.131Z,10.30
2018-09-13T04:29:09.189Z,9.03
2018-09-13T04:34:14.553Z,8.07
2018-09-13T04:39:20.576Z,7.97
2018-09-13T04:44:26.106Z,7.63
2018-09-13T04:49:31.808Z,6.53
2018-09-13T04:54:36.947Z,7.20
2018-09-13T04:59:48.360Z,7.20
2018-09-13T05:04:53.578Z,7.03
2018-09-13T05:09:58.921Z,6.43
2018-09-13T05:15:04.203Z,7.77
2018-09-13T05:20:09.847Z,7.63
2018-09-13T05:25:15.563Z,7.40
2018-09-13T05:30:21.704Z,7.57
2018-09-13T05:35:28.084Z,6.90
2018-09-13T05:40:33.438Z,8.13
2018-09-13T05:45:38.895Z,6.77
2018-09-13T05:50:44.170Z,6.57
2018-09-13T05:55:49.415Z,6.60
2018-09-13T06:00:54.775Z,6.27
2018-09-13T06:05:59.837Z,10.17
2018-09-13T06:11:05.050Z,7.17
2018-09-13T06:16:11.055Z,6.27
2018-09-13T06:21:16.379Z,6.40
2018-09-13T06:26:21.459Z,6.30
2018-09-13T06:31:27.090Z,7.17
2018-09-13T06:36:32.138Z,6.07
2018-09-13T06:41:38.092Z,7.93
2018-09-13T06:46:43.037Z,7.90
2018-09-13T06:51:48.814Z,6.63
2018-09-13T06:56:53.906Z,6.20
2018-09-13T07:01:59.240Z,6.27
2018-09-13T07:07:04.789Z,10.37
2018-09-13T07:12:10.148Z,9.47
2018-09-13T07:17:15.334Z,7.53
2018-09-13T07:22:20.520Z,6.70
2018-09-13T07:27:25.718Z,6.70
2018-09-13T07:32:31.407Z,6.23
2018-09-13T07:37:36.760Z,7.30
2018-09-13T07:42:42.376Z,5.80
2018-09-13T07:47:47.553Z,12.10
2018-09-13T07:52:54.237Z,7.10
2018-09-13T07:58:00.254Z,6.57
2018-09-13T08:03:05.744Z,7.97
2018-09-13T08:08:10.835Z,6.40
2018-09-13T08:13:21.327Z,5.90
2018-09-13T08:18:26.728Z,5.57
2018-09-13T08:23:32.143Z,5.60
2018-09-13T08:28:37.873Z,5.20
2018-09-13T08:33:43.515Z,4.23
2018-09-13T08:38:48.649Z,4.77
2018-09-13T08:43:53.778Z,4.33
2018-09-13T08:49:00.411Z,4.87
2018-09-13T08:54:05.605Z,5.73
2018-09-13T08:59:10.992Z,5.37
2018-09-13T09:04:16.191Z,4.83
2018-09-13T09:09:21.414Z,5.30
2018-09-13T09:14:26.661Z,4.40
2018-09-13T09:19:31.893Z,4.83
2018-09-13T09:24:37.430Z,4.43
2018-09-13T09:29:42.675Z,4.43
2018-09-13T09:34:47.977Z,4.07
2018-09-13T09:39:53.268Z,4.70
2018-09-13T09:44:58.401Z,5.03
2018-09-13T09:50:03.763Z,5.80
2018-09-13T09:55:09.236Z,4.87
2018-09-13T10:00:14.190Z,5.00
2018-09-13T10:05:19.368Z,5.47
2018-09-13T10:10:25.521Z,4.93
2018-09-13T10:15:36.122Z,4.50
2018-09-13T10:20:46.352Z,6.77
2018-09-13T10:25:57.193Z,4.80
2018-09-13T10:31:07.318Z,5.00
2018-09-13T10:36:17.914Z,5.40
2018-09-13T10:41:28.984Z,5.20
2018-09-13T10:46:34.196Z,5.60
2018-09-13T10:51:44.788Z,5.72
2018-09-13T10:56:50.523Z,5.92
2018-09-13T11:01:55.765Z,6.10
2018-09-13T11:07:01.807Z,7.33
2018-09-13T11:12:07.964Z,6.63
2018-09-13T11:17:13.126Z,8.37
2018-09-13T11:22:18.480Z,6.90
2018-09-13T11:27:23.529Z,7.90
2018-09-13T11:32:28.444Z,6.70
2018-09-13T11:37:33.867Z,6.90
2018-09-13T11:42:38.887Z,6.92
2018-09-13T11:47:43.765Z,6.90
2018-09-13T11:52:49.007Z,6.70
2018-09-13T11:57:54.290Z,6.12
2018-09-13T12:03:00.179Z,5.78
2018-09-13T12:08:05.445Z,7.17
2018-09-13T12:13:16.135Z,7.08
2018-09-13T12:18:22.216Z,6.62
2018-09-13T12:23:27.673Z,6.22
2018-09-13T12:28:32.830Z,6.15
2018-09-13T12:33:38.036Z,6.90
2018-09-13T12:38:43.464Z,6.60
2018-09-13T12:43:48.695Z,7.00
2018-09-13T12:48:55.328Z,6.65
2018-09-13T12:54:01.577Z,6.65
2018-09-13T12:59:08.602Z,7.20
2018-09-13T13:04:14.486Z,6.85
2018-09-13T13:09:19.790Z,5.85
2018-09-13T13:14:25.134Z,6.10
2018-09-13T13:19:30.681Z,8.78
2018-09-13T13:24:36.409Z,6.08
2018-09-13T13:29:41.413Z,5.55
2018-09-13T13:34:47.363Z,6.58
2018-09-13T13:39:53.193Z,6.08
2018-09-13T13:44:58.509Z,6.03
2018-09-13T13:50:04.058Z,6.12
2018-09-13T13:55:10.533Z,6.90
2018-09-13T14:00:16.532Z,6.40
2018-09-13T14:05:21.936Z,6.67
2018-09-13T14:10:26.964Z,7.00
2018-09-13T14:15:32.098Z,7.03
2018-09-13T14:20:38.659Z,6.03
2018-09-13T14:25:43.906Z,7.50
2018-09-13T14:30:50.149Z,7.80
2018-09-13T14:35:55.277Z,6.85
2018-09-13T14:41:00.563Z,7.45
2018-09-13T14:46:07.035Z,7.00
2018-09-13T14:51:12.247Z,6.90
2018-09-13T14:56:18.614Z,8.40
2018-09-13T15:01:25.009Z,6.45
2018-09-13T15:06:30.162Z,6.85
2018-09-13T15:11:35.944Z,6.72
2018-09-13T15:16:40.921Z,8.05
2018-09-13T15:21:46.133Z,7.37
2018-09-13T15:26:51.358Z,6.72
2018-09-13T15:31:57.317Z,7.20
2018-09-13T15:37:02.576Z,7.03
2018-09-13T15:42:08.577Z,7.90
2018-09-13T15:47:13.966Z,9.23
2018-09-13T15:52:19.291Z,8.57
2018-09-13T15:57:24.507Z,8.77
2018-09-13T16:02:29.878Z,9.37
2018-09-13T16:07:35.960Z,8.90
2018-09-13T16:12:41.848Z,8.90
2018-09-13T16:17:46.972Z,9.73
2018-09-13T16:22:53.117Z,9.10
2018-09-13T16:27:58.371Z,11.00
2018-09-13T16:33:04.731Z,9.07
2018-09-13T16:38:15.322Z,8.60
2018-09-13T16:43:24.683Z,9.03
2018-09-13T16:48:34.952Z,8.80
2018-09-13T16:53:40.880Z,8.30
2018-09-13T16:58:51.022Z,9.53
2018-09-13T17:03:56.258Z,7.80
2018-09-13T17:09:01.939Z,8.30
2018-09-13T17:14:08.293Z,8.53
2018-09-13T17:19:14.421Z,8.23
2018-09-13T17:24:19.497Z,8.20
2018-09-13T17:29:25.594Z,8.70
2018-09-13T17:34:30.778Z,7.90
2018-09-13T17:39:36.173Z,7.73
2018-09-13T17:44:41.257Z,7.93
2018-09-13T17:49:46.619Z,7.90
2018-09-13T17:54:52.448Z,9.10
2018-09-13T17:59:58.362Z,7.57
2018-09-13T18:05:04.081Z,7.23
2018-09-13T18:10:09.076Z,7.93
2018-09-13T18:15:14.932Z,8.57
2018-09-13T18:20:21.118Z,7.07
2018-09-13T18:25:26.207Z,8.00
2018-09-13T18:30:31.278Z,7.27
2018-09-13T18:35:36.375Z,7.33
2018-09-13T18:40:43.260Z,8.27
2018-09-13T18:45:48.513Z,7.73
2018-09-13T18:50:53.700Z,8.93
2018-09-13T18:55:59.837Z,9.47
2018-09-13T19:01:05.757Z,8.63
2018-09-13T19:06:14.568Z,8.37
2018-09-13T19:11:20.786Z,8.80
2018-09-13T19:16:26.457Z,8.83
2018-09-13T19:21:31.714Z,8.10
2018-09-13T19:26:41.583Z,8.53
2018-09-13T19:31:50.682Z,10.50
2018-09-13T19:36:55.809Z,9.67
2018-09-13T19:42:01.331Z,9.80
2018-09-13T19:47:06.779Z,9.53
2018-09-13T19:52:12.034Z,11.63
2018-09-13T19:57:17.367Z,12.37
2018-09-13T20:02:22.979Z,10.70
2018-09-13T20:07:53.862Z,10.57
2018-09-13T20:13:07.574Z,14.33
2018-09-13T20:18:12.730Z,11.17
2018-09-13T20:23:17.930Z,9.67
2018-09-13T20:28:23.141Z,10.17
2018-09-13T20:33:28.811Z,10.40
2018-09-13T20:38:33.684Z,10.80
2018-09-13T20:43:38.903Z,11.53
2018-09-13T20:48:44.362Z,10.73
2018-09-13T20:53:50.358Z,11.23
2018-09-13T20:58:55.945Z,10.53
2018-09-13T21:04:02.263Z,10.17
2018-09-13T21:09:09.900Z,10.60
2018-09-13T21:14:15.471Z,10.97
2018-09-13T21:19:20.588Z,10.23
2018-09-13T21:24:29.473Z,10.73
2018-09-13T21:29:43.341Z,9.80
2018-09-13T21:34:48.654Z,11.57
2018-09-13T21:39:53.605Z,10.20
2018-09-13T21:44:59.834Z,9.83
2018-09-13T21:50:06.749Z,9.20
2018-09-13T21:55:13.531Z,9.53
2018-09-13T22:00:19.424Z,9.67
2018-09-13T22:05:24.932Z,10.60
2018-09-13T22:10:30.000Z,11.17
2018-09-13T22:15:35.470Z,9.53
2018-09-13T22:20:43.608Z,10.20
2018-09-13T22:25:48.603Z,10.33
2018-09-13T22:30:53.693Z,10.20
2018-09-13T22:36:00.466Z,11.00
2018-09-13T22:41:06.496Z,10.00
2018-09-13T22:46:14.960Z,10.43
2018-09-13T22:51:21.497Z,10.30
2018-09-13T22:56:26.845Z,10.60
2018-09-13T23:01:31.872Z,11.07
2018-09-13T23:06:36.817Z,11.13
2018-09-13T23:11:41.691Z,11.23
2018-09-13T23:16:50.948Z,11.57
2018-09-13T23:21:59.097Z,11.77
2018-09-13T23:27:04.436Z,11.30
2018-09-13T23:32:10.517Z,10.97
2018-09-13T23:37:18.020Z,11.17
2018-09-13T23:42:24.440Z,12.57
2018-09-13T23:47:32.561Z,12.10
2018-09-13T23:52:40.340Z,12.33
2018-09-13T23:57:45.925Z,12.20
